Time;durP1;ratioP1;P1;durP2;ratioP2;P2;SDS_P1;SDS_P2;PMS_P1;PMS_P2;Temp;Humidity;BMP_temperature;BMP_pressure;BME280_temperature;BME280_humidity;BME280_pressure;Samples;Min_cycle;Max_cycle;Signal;HPM_P1;HPM_P2
2024/01/12 00:01:48;;;;;;;40.70;14.17;;;-0.60;99.90;;;;;;5035153;28;20208;-77
2024/01/12 00:04:15;;;;;;;32.47;15.80;;;-0.60;99.90;;;;;;5039784;28;20235;-77
2024/01/12 00:06:43;;;;;;;37.17;14.30;;;-0.60;99.90;;;;;;5038390;28;20200;-78
2024/01/12 00:09:12;;;;;;;31.23;14.40;;;-0.60;99.90;;;;;;5033747;28;20203;-77
2024/01/12 00:11:38;;;;;;;31.53;14.47;;;-0.60;99.90;;;;;;5036486;28;20204;-78
2024/01/12 00:14:05;;;;;;;34.47;14.40;;;-0.60;99.90;;;;;;5031017;28;20305;-78
2024/01/12 00:16:32;;;;;;;31.93;13.53;;;-0.60;99.90;;;;;;5025739;28;20221;-77
2024/01/12 00:18:59;;;;;;;35.87;14.97;;;-0.80;99.90;;;;;;5027112;28;20286;-77
2024/01/12 00:21:26;;;;;;;34.20;14.87;;;-0.50;99.90;;;;;;5036587;28;20210;-78
2024/01/12 00:23:54;;;;;;;36.83;14.30;;;-0.50;99.90;;;;;;5034785;28;20227;-79
2024/01/12 00:26:20;;;;;;;40.03;15.83;;;-0.60;99.90;;;;;;5035218;28;20332;-78
2024/01/12 00:28:47;;;;;;;33.80;16.03;;;-0.50;99.90;;;;;;5033692;28;20208;-77
2024/01/12 00:31:14;;;;;;;40.63;15.63;;;-0.50;99.90;;;;;;5035259;28;20721;-78
2024/01/12 00:33:41;;;;;;;39.47;16.30;;;-0.50;99.90;;;;;;5032803;28;20518;-76
2024/01/12 00:36:08;;;;;;;41.23;17.97;;;-0.50;99.90;;;;;;5036351;28;20195;-78
2024/01/12 00:38:35;;;;;;;39.10;17.10;;;-0.50;99.90;;;;;;5035080;28;20206;-79
2024/01/12 00:41:03;;;;;;;42.07;17.33;;;-0.50;99.90;;;;;;5035641;28;20209;-78
2024/01/12 00:43:30;;;;;;;41.70;16.17;;;-0.50;99.90;;;;;;5038872;28;20589;-78
2024/01/12 00:45:57;;;;;;;41.33;16.17;;;-0.50;99.90;;;;;;5038822;28;20226;-78
2024/01/12 00:48:24;;;;;;;48.03;19.57;;;-0.50;99.90;;;;;;5037656;28;20646;-78
2024/01/12 00:50:51;;;;;;;40.97;16.30;;;-0.50;99.90;;;;;;5038465;28;20575;-77
2024/01/12 00:53:18;;;;;;;40.43;15.03;;;-0.50;99.90;;;;;;5032585;28;20231;-78
2024/01/12 00:55:45;;;;;;;43.53;16.60;;;-0.50;99.90;;;;;;5037903;28;20665;-78
2024/01/12 00:58:13;;;;;;;39.23;16.70;;;-0.50;99.90;;;;;;5039116;28;20204;-78
2024/01/12 01:00:40;;;;;;;40.03;15.80;;;-0.50;99.90;;;;;;5033173;28;20196;-77
2024/01/12 01:03:07;;;;;;;40.60;16.57;;;-0.50;99.90;;;;;;5029105;28;20206;-78
2024/01/12 01:05:33;;;;;;;40.47;16.80;;;-0.50;99.90;;;;;;5040346;28;20211;-78
2024/01/12 01:08:00;;;;;;;39.97;16.40;;;-0.50;99.90;;;;;;5033971;28;20586;-77
2024/01/12 01:10:27;;;;;;;42.47;18.23;;;-0.40;99.90;;;;;;5034929;28;20214;-79
2024/01/12 01:12:54;;;;;;;40.17;18.70;;;-0.50;99.90;;;;;;5033600;28;20210;-78
2024/01/12 01:15:22;;;;;;;37.60;16.40;;;-0.50;99.90;;;;;;5033823;28;20219;-78
2024/01/12 01:17:49;;;;;;;40.80;16.53;;;-0.40;99.90;;;;;;5034349;28;20676;-77
2024/01/12 01:20:16;;;;;;;40.77;17.67;;;-0.40;99.90;;;;;;5032861;28;20253;-78
2024/01/12 01:22:43;;;;;;;39.90;17.33;;;-0.40;99.90;;;;;;5031819;28;20218;-79
2024/01/12 01:25:10;;;;;;;40.63;18.07;;;-0.40;99.90;;;;;;5032614;28;20227;-78
2024/01/12 01:27:37;;;;;;;39.93;16.33;;;-0.40;99.90;;;;;;5028745;28;20291;-76
2024/01/12 01:30:05;;;;;;;37.73;16.70;;;-0.40;99.90;;;;;;5033169;28;20691;-78
2024/01/12 01:32:33;;;;;;;35.30;16.50;;;-0.40;99.90;;;;;;5027406;28;20203;-76
2024/01/12 01:35:00;;;;;;;38.53;16.07;;;-0.40;99.90;;;;;;5033922;28;20633;-78
2024/01/12 01:37:27;;;;;;;33.93;14.57;;;-0.40;99.90;;;;;;5038924;28;20654;-78
2024/01/12 01:39:54;;;;;;;33.67;13.97;;;-0.30;99.90;;;;;;5035040;28;20575;-77
2024/01/12 01:42:20;;;;;;;28.83;13.83;;;-0.30;99.90;;;;;;5035851;28;20204;-78
2024/01/12 01:44:47;;;;;;;30.53;14.50;;;-0.30;99.90;;;;;;5031116;28;20617;-78
2024/01/12 01:47:15;;;;;;;35.13;14.33;;;-0.30;99.90;;;;;;5026249;28;20570;-80
2024/01/12 01:49:43;;;;;;;36.93;15.47;;;-0.30;99.90;;;;;;5029390;28;20286;-78
2024/01/12 01:52:11;;;;;;;31.47;13.67;;;-0.30;99.90;;;;;;5032824;28;20195;-77
2024/01/12 01:54:37;;;;;;;33.40;13.77;;;-0.30;99.90;;;;;;5034881;28;20220;-77
2024/01/12 01:57:05;;;;;;;32.10;14.23;;;-0.30;99.90;;;;;;5034209;28;20203;-79
2024/01/12 01:59:32;;;;;;;36.50;13.97;;;-0.30;99.90;;;;;;5034359;28;20196;-78
2024/01/12 02:02:00;;;;;;;32.33;13.17;;;-0.30;99.90;;;;;;5039888;28;20293;-79
2024/01/12 02:04:27;;;;;;;29.40;11.80;;;-0.30;99.90;;;;;;5034455;28;20219;-79
2024/01/12 02:06:55;;;;;;;31.73;13.23;;;-0.30;99.90;;;;;;5033672;28;20227;-79
2024/01/12 02:09:23;;;;;;;32.93;13.57;;;-0.30;99.90;;;;;;5031493;28;20204;-79
2024/01/12 02:11:50;;;;;;;32.50;14.03;;;-0.30;99.90;;;;;;5034595;28;20225;-79
2024/01/12 02:14:17;;;;;;;36.00;15.10;;;-0.30;99.90;;;;;;5038390;28;20219;-77
2024/01/12 02:16:43;;;;;;;34.93;14.77;;;-0.30;99.90;;;;;;5034222;28;20199;-80
2024/01/12 02:19:10;;;;;;;33.50;15.27;;;-0.20;99.90;;;;;;5035359;28;20210;-77
2024/01/12 02:21:38;;;;;;;36.07;16.27;;;-0.20;99.90;;;;;;5035331;28;20200;-77
2024/01/12 02:24:05;;;;;;;34.00;15.70;;;-0.20;99.90;;;;;;5032623;28;20315;-78
2024/01/12 02:26:32;;;;;;;34.07;15.90;;;-0.20;99.90;;;;;;5032742;28;20601;-78
2024/01/12 02:29:00;;;;;;;35.83;15.20;;;-0.20;99.90;;;;;;5033937;28;20200;-79
2024/01/12 02:31:27;;;;;;;40.83;16.40;;;-0.20;99.90;;;;;;5024241;28;20334;-77
2024/01/12 02:33:54;;;;;;;41.83;16.80;;;-0.20;99.90;;;;;;5028055;28;20235;-78
2024/01/12 02:36:21;;;;;;;38.33;16.17;;;-0.20;99.90;;;;;;5038531;28;20653;-78
2024/01/12 02:38:50;;;;;;;37.53;17.23;;;-0.10;99.90;;;;;;5033184;28;20196;-77
2024/01/12 02:41:17;;;;;;;40.37;16.10;;;-0.20;99.90;;;;;;5029716;28;20203;-77
2024/01/12 02:43:44;;;;;;;37.13;17.20;;;-0.20;99.90;;;;;;5032632;28;20218;-78
2024/01/12 02:46:11;;;;;;;34.47;15.67;;;-0.10;99.90;;;;;;5025558;28;20230;-78
2024/01/12 02:48:38;;;;;;;39.13;16.60;;;-0.10;99.90;;;;;;5035103;28;20200;-79
2024/01/12 02:51:05;;;;;;;39.90;15.90;;;-0.10;99.90;;;;;;5033525;28;20581;-78
2024/01/12 02:53:32;;;;;;;38.90;16.73;;;-0.10;99.90;;;;;;5033386;28;20223;-78
2024/01/12 02:56:00;;;;;;;39.43;15.50;;;-0.10;99.90;;;;;;5031715;28;20206;-78
2024/01/12 02:58:27;;;;;;;38.07;17.23;;;-0.20;99.90;;;;;;5030595;28;20209;-79
2024/01/12 03:00:54;;;;;;;36.30;16.30;;;-0.10;99.90;;;;;;5035847;28;20195;-79
2024/01/12 03:03:21;;;;;;;41.13;17.73;;;-0.20;99.90;;;;;;5038804;28;20775;-78
2024/01/12 03:05:49;;;;;;;38.13;16.57;;;-0.10;99.90;;;;;;5037692;28;20220;-79
2024/01/12 03:08:16;;;;;;;38.30;15.23;;;-0.10;99.90;;;;;;5036975;28;20230;-78
2024/01/12 03:10:42;;;;;;;37.47;15.90;;;-0.10;99.90;;;;;;5039485;28;20206;-79
2024/01/12 03:13:11;;;;;;;35.53;15.40;;;-0.10;99.90;;;;;;5034928;28;20207;-77
2024/01/12 03:15:37;;;;;;;37.97;15.37;;;-0.10;99.90;;;;;;5035093;28;20214;-77
2024/01/12 03:18:04;;;;;;;36.67;15.03;;;0.00;99.90;;;;;;5036586;28;20207;-79
2024/01/12 03:20:31;;;;;;;37.93;15.73;;;0.00;99.90;;;;;;5036260;28;20202;-79
2024/01/12 03:22:58;;;;;;;42.50;17.37;;;-0.10;99.90;;;;;;5034437;28;20203;-79
2024/01/12 03:25:25;;;;;;;35.90;14.80;;;-0.10;99.90;;;;;;5038423;28;20226;-79
2024/01/12 03:27:51;;;;;;;37.97;15.73;;;0.00;99.90;;;;;;5036333;28;20200;-79
2024/01/12 03:30:19;;;;;;;36.57;15.77;;;0.00;99.90;;;;;;5034964;28;20211;-79
2024/01/12 03:32:46;;;;;;;35.07;14.50;;;0.00;99.90;;;;;;5035633;28;20210;-78
2024/01/12 03:35:13;;;;;;;31.97;14.83;;;0.00;99.90;;;;;;5032175;28;20643;-77
2024/01/12 03:37:40;;;;;;;34.57;14.57;;;0.00;99.90;;;;;;5038403;28;20657;-77
2024/01/12 03:40:08;;;;;;;36.37;14.03;;;0.00;99.90;;;;;;5035056;28;20211;-79
2024/01/12 03:42:35;;;;;;;31.57;13.03;;;0.00;99.90;;;;;;5039621;28;20204;-79
2024/01/12 03:45:01;;;;;;;40.60;15.73;;;0.00;99.90;;;;;;5040611;28;20227;-79
2024/01/12 03:47:30;;;;;;;36.13;16.43;;;0.00;99.90;;;;;;5035831;28;20238;-78
2024/01/12 03:49:56;;;;;;;40.30;15.80;;;0.00;99.90;;;;;;5041218;28;20601;-78
2024/01/12 03:52:23;;;;;;;36.63;14.53;;;0.10;99.90;;;;;;5031317;28;20202;-79
2024/01/12 03:54:50;;;;;;;36.37;14.97;;;0.10;99.90;;;;;;5033535;28;20216;-78
2024/01/12 03:57:17;;;;;;;32.07;14.30;;;0.10;99.90;;;;;;5035553;28;20200;-78
2024/01/12 03:59:43;;;;;;;39.67;15.63;;;0.10;99.90;;;;;;5035849;28;20204;-79
2024/01/12 04:02:10;;;;;;;33.43;13.07;;;0.20;99.90;;;;;;5041843;28;20205;-78
2024/01/12 04:04:41;;;;;;;35.00;14.27;;;0.10;99.90;;;;;;5030214;28;20233;-77
2024/01/12 04:07:08;;;;;;;36.57;17.23;;;0.20;99.90;;;;;;5031865;28;20224;-79
2024/01/12 04:09:34;;;;;;;29.87;13.10;;;0.20;99.90;;;;;;5030298;28;20199;-78
2024/01/12 04:12:02;;;;;;;29.33;12.73;;;0.20;99.90;;;;;;5036529;28;20287;-77
2024/01/12 04:14:29;;;;;;;31.17;13.97;;;0.20;99.90;;;;;;5037190;28;20228;-78
2024/01/12 04:16:55;;;;;;;31.57;13.07;;;0.20;99.90;;;;;;5033644;28;20211;-80
2024/01/12 04:19:22;;;;;;;34.10;15.00;;;0.20;99.90;;;;;;5030497;28;20203;-80
2024/01/12 04:21:50;;;;;;;30.57;12.03;;;0.20;99.90;;;;;;5032993;28;20279;-77
2024/01/12 04:24:17;;;;;;;30.40;12.70;;;0.30;99.90;;;;;;5034883;28;20218;-77
2024/01/12 04:26:44;;;;;;;32.83;13.73;;;0.30;99.90;;;;;;5034079;28;20647;-78
2024/01/12 04:29:11;;;;;;;33.57;13.80;;;0.30;99.90;;;;;;5033917;28;20577;-77
2024/01/12 04:31:40;;;;;;;31.80;13.73;;;0.30;99.90;;;;;;5026355;28;20204;-79
2024/01/12 04:34:07;;;;;;;32.40;13.10;;;0.30;99.90;;;;;;5029749;28;20289;-77
2024/01/12 04:36:34;;;;;;;32.07;13.97;;;0.30;99.90;;;;;;5032405;28;20195;-79
2024/01/12 04:39:02;;;;;;;34.77;14.43;;;0.30;99.90;;;;;;5033140;28;20578;-77
2024/01/12 04:41:29;;;;;;;31.50;13.30;;;0.30;99.90;;;;;;5035709;28;20211;-77
2024/01/12 04:43:56;;;;;;;32.07;13.43;;;0.30;99.90;;;;;;5036542;28;20254;-78
2024/01/12 04:46:22;;;;;;;32.43;14.67;;;0.30;99.90;;;;;;5039505;28;20226;-77
2024/01/12 04:48:49;;;;;;;28.90;13.70;;;0.30;99.90;;;;;;5032759;28;20224;-78
2024/01/12 04:51:16;;;;;;;34.37;14.07;;;0.30;99.90;;;;;;5032921;28;20226;-78
2024/01/12 04:53:43;;;;;;;29.57;13.90;;;0.30;99.90;;;;;;5037124;28;20216;-77
2024/01/12 04:56:11;;;;;;;28.77;12.83;;;0.30;99.90;;;;;;5032632;28;20206;-77
2024/01/12 04:58:38;;;;;;;29.93;14.07;;;0.30;99.90;;;;;;5031274;28;20654;-77
2024/01/12 05:01:05;;;;;;;37.50;15.43;;;0.30;99.90;;;;;;5031921;28;20301;-77
2024/01/12 05:03:32;;;;;;;31.20;12.97;;;0.30;99.90;;;;;;5032763;28;20729;-79
2024/01/12 05:05:59;;;;;;;33.30;13.77;;;0.30;99.90;;;;;;5037027;28;20220;-78
2024/01/12 05:08:26;;;;;;;29.53;12.90;;;0.30;99.90;;;;;;5034642;28;20203;-78
2024/01/12 05:10:54;;;;;;;29.43;13.50;;;0.40;99.90;;;;;;5032320;28;20200;-77
2024/01/12 05:13:22;;;;;;;37.93;13.93;;;0.40;99.90;;;;;;5034569;28;20701;-78
2024/01/12 05:15:49;;;;;;;35.00;14.60;;;0.40;99.90;;;;;;5033054;28;20212;-78
2024/01/12 05:18:16;;;;;;;35.67;14.77;;;0.40;99.90;;;;;;5031113;28;20207;-77
2024/01/12 05:20:43;;;;;;;36.77;15.67;;;0.50;99.90;;;;;;5033421;28;20203;-78
2024/01/12 05:23:09;;;;;;;33.17;14.50;;;0.40;99.90;;;;;;5033302;28;20295;-78
2024/01/12 05:25:37;;;;;;;29.70;13.80;;;0.40;99.90;;;;;;5031861;28;20212;-77
2024/01/12 05:28:04;;;;;;;31.87;14.17;;;0.40;99.90;;;;;;5033926;28;20629;-78
2024/01/12 05:30:33;;;;;;;36.47;15.80;;;0.40;99.90;;;;;;5031901;28;20203;-79
2024/01/12 05:33:00;;;;;;;31.60;14.67;;;0.40;99.90;;;;;;5031417;28;20813;-78
2024/01/12 05:35:27;;;;;;;33.37;13.40;;;0.40;99.90;;;;;;5032447;28;20210;-78
2024/01/12 05:37:54;;;;;;;34.50;14.77;;;0.40;99.90;;;;;;5038487;28;20550;-78
2024/01/12 05:40:21;;;;;;;33.53;14.57;;;0.50;99.90;;;;;;5030951;28;20212;-78
2024/01/12 05:42:48;;;;;;;28.47;13.80;;;0.50;99.90;;;;;;5039169;28;20645;-77
2024/01/12 05:45:15;;;;;;;29.93;13.17;;;0.50;99.90;;;;;;5039067;28;20696;-78
2024/01/12 05:47:43;;;;;;;30.73;13.23;;;0.50;99.90;;;;;;5023071;28;20293;-77
2024/01/12 05:50:10;;;;;;;29.13;13.47;;;0.50;99.90;;;;;;5032649;28;20214;-79
2024/01/12 05:52:38;;;;;;;29.73;12.87;;;0.50;99.90;;;;;;5022911;28;20200;-78
2024/01/12 05:55:05;;;;;;;29.47;13.10;;;0.60;99.90;;;;;;5028427;28;20282;-79
2024/01/12 05:57:32;;;;;;;31.40;13.10;;;0.50;99.90;;;;;;5036018;28;20279;-78
2024/01/12 05:59:59;;;;;;;28.33;11.60;;;0.50;99.90;;;;;;5033054;28;20207;-77
2024/01/12 06:02:26;;;;;;;27.30;13.43;;;0.50;99.90;;;;;;5043372;28;20199;-77
2024/01/12 06:04:54;;;;;;;35.53;13.23;;;0.50;99.90;;;;;;5043988;28;20310;-77
2024/01/12 06:07:21;;;;;;;28.40;12.70;;;0.60;99.90;;;;;;5037816;28;20229;-78
2024/01/12 06:09:47;;;;;;;30.67;12.90;;;0.60;99.90;;;;;;5038569;28;20203;-77
2024/01/12 06:12:14;;;;;;;26.33;12.40;;;0.60;99.90;;;;;;5030254;28;20200;-78
2024/01/12 06:14:41;;;;;;;30.57;12.70;;;0.60;99.90;;;;;;5029755;28;20219;-80
2024/01/12 06:17:08;;;;;;;27.90;12.47;;;0.60;99.90;;;;;;5037610;28;20587;-79
2024/01/12 06:19:34;;;;;;;28.63;13.00;;;0.60;99.90;;;;;;5033241;28;20199;-76
2024/01/12 06:22:03;;;;;;;29.60;12.80;;;0.60;99.90;;;;;;5033018;28;20583;-78
2024/01/12 06:24:30;;;;;;;33.27;12.47;;;0.60;99.90;;;;;;5034578;28;20605;-76
2024/01/12 06:26:56;;;;;;;29.33;13.53;;;0.60;99.90;;;;;;5038155;28;20227;-78
2024/01/12 06:29:23;;;;;;;28.97;13.07;;;0.60;99.90;;;;;;5036534;28;21068;-77
2024/01/12 06:31:50;;;;;;;29.97;13.07;;;0.60;99.90;;;;;;5031173;28;20554;-78
2024/01/12 06:34:17;;;;;;;31.00;13.27;;;0.70;99.90;;;;;;5027095;28;20706;-77
2024/01/12 06:36:44;;;;;;;31.50;12.80;;;0.60;99.90;;;;;;5034697;28;20230;-79
2024/01/12 06:39:12;;;;;;;30.27;12.33;;;0.60;99.90;;;;;;5032103;28;20199;-78
2024/01/12 06:41:43;;;;;;;29.90;13.00;;;0.60;99.90;;;;;;5029865;28;20204;-79
2024/01/12 06:44:10;;;;;;;32.97;13.37;;;0.70;99.90;;;;;;5030440;28;20261;-80
2024/01/12 06:46:42;;;;;;;35.13;12.20;;;0.70;99.90;;;;;;5035042;28;20215;-79
2024/01/12 06:49:08;;;;;;;29.60;12.63;;;0.70;99.90;;;;;;5035402;28;20207;-79
2024/01/12 06:51:35;;;;;;;28.93;13.17;;;0.70;99.90;;;;;;5036955;28;20583;-79
2024/01/12 06:54:02;;;;;;;30.30;12.57;;;0.70;99.90;;;;;;5040486;28;20245;-79
2024/01/12 06:56:30;;;;;;;30.97;11.67;;;0.70;99.90;;;;;;5030573;28;20227;-78
2024/01/12 06:58:57;;;;;;;27.03;12.07;;;0.70;99.90;;;;;;5027297;28;20234;-79
2024/01/12 07:01:24;;;;;;;31.13;12.93;;;0.70;99.90;;;;;;5032097;28;20208;-78
2024/01/12 07:03:52;;;;;;;28.33;11.97;;;0.70;99.90;;;;;;5040329;28;20224;-79
2024/01/12 07:06:18;;;;;;;28.10;12.90;;;0.70;99.90;;;;;;5030074;28;20207;-80
2024/01/12 07:08:45;;;;;;;43.23;18.83;;;0.70;99.90;;;;;;5032378;28;20196;-80
2024/01/12 07:11:12;;;;;;;45.27;21.93;;;0.70;99.90;;;;;;5043678;28;20206;-80
2024/01/12 07:13:40;;;;;;;35.70;17.47;;;0.70;99.90;;;;;;5033808;28;20226;-79
2024/01/12 07:16:07;;;;;;;29.77;14.00;;;0.70;99.90;;;;;;5028117;28;20211;-79
2024/01/12 07:18:34;;;;;;;26.80;13.23;;;0.70;99.90;;;;;;5036855;28;20204;-79
2024/01/12 07:21:03;;;;;;;27.27;12.83;;;0.70;99.90;;;;;;5031101;28;20207;-78
2024/01/12 07:23:30;;;;;;;27.77;11.80;;;0.70;99.90;;;;;;5038486;28;20219;-79
2024/01/12 07:25:58;;;;;;;21.07;11.03;;;0.70;99.90;;;;;;5037935;28;20210;-80
2024/01/12 07:28:25;;;;;;;24.80;11.33;;;0.70;99.90;;;;;;5032895;28;20224;-78
2024/01/12 07:30:54;;;;;;;24.60;11.23;;;0.70;99.90;;;;;;5031488;28;20219;-79
2024/01/12 07:33:21;;;;;;;27.20;10.90;;;0.70;99.90;;;;;;5042331;28;21020;-79
2024/01/12 07:35:48;;;;;;;25.50;11.20;;;0.70;99.90;;;;;;5032429;28;20656;-79
2024/01/12 07:38:15;;;;;;;26.07;12.00;;;0.80;99.90;;;;;;5034893;28;20229;-79
2024/01/12 07:40:41;;;;;;;25.23;11.20;;;0.80;99.90;;;;;;5038927;28;20601;-79
2024/01/12 07:43:08;;;;;;;22.83;10.60;;;0.80;99.90;;;;;;5031731;28;20227;-79
2024/01/12 07:45:35;;;;;;;25.17;11.67;;;0.80;99.90;;;;;;5037451;28;20203;-78
2024/01/12 07:48:04;;;;;;;21.77;11.57;;;0.80;99.90;;;;;;5033761;28;20366;-77
2024/01/12 07:50:32;;;;;;;28.43;12.10;;;0.80;99.90;;;;;;5047628;28;20724;-78
2024/01/12 07:52:59;;;;;;;23.13;11.40;;;0.80;99.90;;;;;;5040065;28;20242;-78
2024/01/12 07:55:27;;;;;;;27.47;12.90;;;0.90;99.90;;;;;;5039025;28;20677;-78
2024/01/12 07:57:54;;;;;;;27.17;13.07;;;0.80;99.90;;;;;;5024039;28;20200;-78
2024/01/12 08:00:21;;;;;;;27.47;12.13;;;0.80;99.90;;;;;;5031821;28;20585;-79
2024/01/12 08:02:47;;;;;;;28.30;13.93;;;0.80;99.90;;;;;;5034454;28;20203;-78
2024/01/12 08:05:15;;;;;;;26.60;13.00;;;0.90;99.90;;;;;;5034198;28;20235;-78
2024/01/12 08:07:42;;;;;;;28.43;14.50;;;0.90;99.90;;;;;;5041991;28;20234;-78
2024/01/12 08:10:09;;;;;;;28.80;13.30;;;0.80;99.90;;;;;;5034321;28;20298;-79
2024/01/12 08:12:36;;;;;;;26.53;12.70;;;0.90;99.90;;;;;;5034186;28;20196;-79
2024/01/12 08:15:03;;;;;;;29.37;13.83;;;0.90;99.90;;;;;;5038895;28;20255;-79
2024/01/12 08:17:30;;;;;;;29.23;13.10;;;0.90;99.90;;;;;;5040053;28;20228;-79
2024/01/12 08:19:57;;;;;;;29.23;12.37;;;0.90;99.90;;;;;;5038224;28;20809;-79
2024/01/12 08:22:25;;;;;;;28.80;12.83;;;0.90;99.90;;;;;;5043141;28;20895;-79
2024/01/12 08:24:52;;;;;;;27.50;12.17;;;0.90;99.90;;;;;;5033262;28;20220;-79
2024/01/12 08:27:18;;;;;;;29.17;12.13;;;0.90;99.90;;;;;;5034844;28;20224;-79
2024/01/12 08:29:48;;;;;;;27.40;13.03;;;0.90;99.90;;;;;;5039809;28;20864;-78
2024/01/12 08:32:14;;;;;;;26.57;12.50;;;0.90;99.90;;;;;;5033087;28;20208;-78
2024/01/12 08:34:41;;;;;;;29.47;12.70;;;0.90;99.90;;;;;;5041254;28;20226;-78
2024/01/12 08:37:08;;;;;;;27.93;12.87;;;0.90;99.90;;;;;;5037696;28;20199;-78
2024/01/12 08:39:36;;;;;;;25.83;11.83;;;0.90;99.90;;;;;;5034419;28;20583;-78
2024/01/12 08:42:03;;;;;;;26.93;11.90;;;0.90;99.90;;;;;;5034929;28;20290;-78
2024/01/12 08:44:30;;;;;;;25.53;11.87;;;0.90;99.90;;;;;;5035806;28;20605;-78
2024/01/12 08:46:57;;;;;;;22.93;11.60;;;0.90;99.90;;;;;;5032913;28;20302;-80
2024/01/12 08:49:24;;;;;;;25.13;11.37;;;1.00;99.90;;;;;;5034092;28;20242;-79
2024/01/12 08:51:52;;;;;;;27.43;13.17;;;0.90;99.90;;;;;;5034899;28;20363;-78
2024/01/12 08:54:19;;;;;;;24.53;11.60;;;1.00;99.90;;;;;;5038808;28;20234;-78
2024/01/12 08:56:47;;;;;;;25.03;12.17;;;1.00;99.90;;;;;;5038011;28;20238;-78
2024/01/12 08:59:14;;;;;;;25.63;12.33;;;1.00;99.90;;;;;;5040616;28;20241;-78
2024/01/12 09:01:40;;;;;;;26.90;11.77;;;1.00;99.90;;;;;;5035197;28;20618;-79
2024/01/12 09:04:07;;;;;;;23.87;12.07;;;1.00;99.90;;;;;;5038221;28;20229;-78
2024/01/12 09:06:34;;;;;;;27.07;12.53;;;1.00;99.90;;;;;;5039104;28;20208;-78
2024/01/12 09:09:01;;;;;;;27.43;13.23;;;1.00;99.90;;;;;;5034353;28;20223;-78
2024/01/12 09:11:28;;;;;;;31.87;13.40;;;1.10;99.90;;;;;;5039848;28;20287;-79
2024/01/12 09:13:56;;;;;;;32.00;13.60;;;1.10;99.90;;;;;;5040044;28;20226;-77
2024/01/12 09:16:22;;;;;;;25.63;12.57;;;1.10;99.90;;;;;;5036671;28;20568;-77
2024/01/12 09:18:49;;;;;;;29.53;13.23;;;1.20;99.90;;;;;;5044626;28;20206;-77
2024/01/12 09:21:16;;;;;;;27.40;12.30;;;1.10;99.90;;;;;;5042980;28;20291;-78
2024/01/12 09:23:43;;;;;;;29.80;11.93;;;1.10;99.90;;;;;;5041347;28;20678;-77
2024/01/12 09:26:11;;;;;;;30.87;13.20;;;1.10;99.90;;;;;;5040148;28;20212;-78
2024/01/12 09:28:38;;;;;;;31.17;12.47;;;1.10;99.90;;;;;;5039358;28;20224;-76
2024/01/12 09:31:08;;;;;;;25.73;12.90;;;1.20;99.90;;;;;;5044921;28;20211;-78
2024/01/12 09:33:35;;;;;;;25.27;12.37;;;1.20;99.90;;;;;;5039026;28;20223;-77
2024/01/12 09:36:03;;;;;;;26.60;12.03;;;1.30;99.90;;;;;;5045401;28;20604;-79
2024/01/12 09:38:30;;;;;;;27.67;11.87;;;1.30;99.90;;;;;;5041359;28;20236;-79
2024/01/12 09:40:58;;;;;;;28.87;13.70;;;1.30;99.90;;;;;;5037023;28;20271;-78
2024/01/12 09:43:29;;;;;;;27.57;12.10;;;1.40;99.90;;;;;;5039550;28;20224;-77
2024/01/12 09:46:00;;;;;;;29.30;12.23;;;1.40;99.90;;;;;;5037586;28;20666;-78
2024/01/12 09:48:30;;;;;;;28.40;12.47;;;1.40;99.90;;;;;;5041807;28;20254;-79
2024/01/12 09:50:59;;;;;;;29.13;13.60;;;1.40;99.90;;;;;;5037012;28;20204;-78
2024/01/12 09:53:26;;;;;;;32.80;17.23;;;1.40;99.90;;;;;;5039985;28;20234;-79
2024/01/12 09:55:53;;;;;;;27.77;13.50;;;1.40;99.90;;;;;;5039226;28;20214;-78
2024/01/12 09:58:22;;;;;;;27.63;13.60;;;1.50;99.90;;;;;;5045996;28;20226;-79
2024/01/12 10:00:52;;;;;;;28.90;14.10;;;1.50;99.90;;;;;;5040245;28;20203;-78
2024/01/12 10:03:21;;;;;;;27.37;12.57;;;1.50;99.90;;;;;;5040848;28;20199;-80
2024/01/12 10:05:49;;;;;;;28.90;13.30;;;1.50;99.90;;;;;;5039704;28;20295;-78
2024/01/12 10:08:16;;;;;;;25.17;12.37;;;1.60;99.90;;;;;;5042246;28;20233;-79
2024/01/12 10:10:43;;;;;;;28.03;12.73;;;1.60;99.90;;;;;;5043128;28;20271;-78
2024/01/12 10:13:10;;;;;;;29.10;12.83;;;1.60;99.90;;;;;;5037471;28;20199;-78
2024/01/12 10:15:40;;;;;;;26.50;12.37;;;1.60;99.90;;;;;;5041479;28;20207;-78
2024/01/12 10:18:07;;;;;;;27.50;12.83;;;1.60;99.90;;;;;;5045470;28;20195;-78
2024/01/12 10:20:36;;;;;;;27.43;13.60;;;1.60;99.90;;;;;;5038680;28;20206;-77
2024/01/12 10:23:05;;;;;;;29.10;13.17;;;1.60;99.90;;;;;;5041618;28;20200;-78
2024/01/12 10:25:32;;;;;;;28.60;14.17;;;1.70;99.90;;;;;;5042042;28;20937;-77
2024/01/12 10:27:59;;;;;;;27.57;13.70;;;1.60;99.90;;;;;;5040848;28;20783;-77
2024/01/12 10:30:26;;;;;;;31.37;13.63;;;1.60;99.90;;;;;;5039194;28;20203;-78
2024/01/12 10:32:53;;;;;;;26.37;13.10;;;1.60;99.90;;;;;;5041582;28;20204;-77
2024/01/12 10:35:21;;;;;;;25.87;12.40;;;1.70;99.90;;;;;;5041351;28;20227;-78
2024/01/12 10:37:48;;;;;;;28.83;13.03;;;1.70;99.90;;;;;;5043712;28;20210;-79
2024/01/12 10:40:18;;;;;;;29.97;13.23;;;1.60;99.90;;;;;;5047761;28;20608;-78
2024/01/12 10:42:48;;;;;;;28.50;13.03;;;1.70;99.90;;;;;;5040562;28;20877;-78
2024/01/12 10:45:22;;;;;;;28.90;13.47;;;1.70;99.90;;;;;;5045543;28;20625;-77
2024/01/12 10:47:56;;;;;;;27.13;12.07;;;1.60;99.90;;;;;;5037473;28;20231;-79
2024/01/12 10:50:25;;;;;;;27.23;12.33;;;1.60;99.90;;;;;;5041659;28;20199;-77
2024/01/12 10:53:03;;;;;;;25.73;12.10;;;1.70;99.90;;;;;;5039881;28;20208;-79
2024/01/12 10:55:34;;;;;;;28.43;12.87;;;1.70;99.90;;;;;;5040787;28;20205;-78
2024/01/12 10:58:03;;;;;;;26.47;13.60;;;1.70;99.90;;;;;;5041821;28;20227;-78
2024/01/12 11:00:32;;;;;;;23.53;11.93;;;2.00;99.90;;;;;;5042279;28;20207;-79
2024/01/12 11:03:00;;;;;;;24.67;11.47;;;1.70;99.90;;;;;;5041884;28;20207;-78
2024/01/12 11:05:28;;;;;;;25.07;11.47;;;1.70;99.90;;;;;;5041045;28;20571;-78
2024/01/12 11:07:59;;;;;;;24.43;10.73;;;1.70;99.90;;;;;;5039684;28;20223;-78
2024/01/12 11:10:27;;;;;;;24.30;10.63;;;2.00;99.90;;;;;;5043176;28;20207;-78
2024/01/12 11:12:57;;;;;;;22.83;10.57;;;1.80;99.90;;;;;;5044010;28;20203;-78
2024/01/12 11:15:23;;;;;;;23.00;11.20;;;1.80;99.90;;;;;;5038165;28;20227;-78
2024/01/12 11:17:50;;;;;;;22.93;10.03;;;1.90;99.90;;;;;;5032259;28;20202;-78
2024/01/12 11:20:20;;;;;;;22.47;10.30;;;1.90;99.90;;;;;;5039988;28;20208;-79
2024/01/12 11:22:47;;;;;;;22.83;10.33;;;2.00;99.90;;;;;;5043223;28;20219;-78
2024/01/12 11:25:16;;;;;;;21.30;11.47;;;2.10;99.90;;;;;;5046603;28;20215;-78
2024/01/12 11:27:47;;;;;;;23.27;10.13;;;2.10;99.90;;;;;;5045203;28;20203;-79
2024/01/12 11:30:18;;;;;;;22.00;9.63;;;2.20;99.90;;;;;;5044771;28;20294;-79
2024/01/12 11:32:45;;;;;;;23.37;10.47;;;2.20;99.90;;;;;;5044522;28;20200;-78
2024/01/12 11:35:17;;;;;;;23.90;10.73;;;2.20;99.90;;;;;;5044599;28;20651;-79
2024/01/12 11:37:45;;;;;;;20.60;9.93;;;2.10;99.90;;;;;;5048021;28;20265;-79
2024/01/12 11:40:14;;;;;;;23.03;10.97;;;2.20;99.90;;;;;;5050893;28;20216;-78
2024/01/12 11:42:41;;;;;;;20.80;10.40;;;2.10;99.90;;;;;;5043240;28;20210;-77
2024/01/12 11:45:09;;;;;;;22.83;11.37;;;2.00;99.90;;;;;;5038117;28;20232;-78
2024/01/12 11:47:38;;;;;;;22.73;10.53;;;2.00;99.90;;;;;;5050099;28;20222;-80
2024/01/12 11:50:06;;;;;;;25.73;11.20;;;2.00;99.90;;;;;;5047909;28;20199;-79
2024/01/12 11:52:33;;;;;;;21.53;11.13;;;2.00;99.90;;;;;;5047385;28;20206;-80
2024/01/12 11:55:00;;;;;;;24.70;11.20;;;2.00;99.90;;;;;;5041469;28;20241;-77
2024/01/12 11:57:27;;;;;;;25.70;11.60;;;2.00;99.90;;;;;;5046273;28;20214;-80
2024/01/12 11:59:56;;;;;;;24.67;10.70;;;2.00;99.90;;;;;;5047707;28;20203;-78
2024/01/12 12:02:24;;;;;;;25.27;10.83;;;2.00;99.90;;;;;;5040529;28;20199;-80
2024/01/12 12:04:53;;;;;;;25.53;12.27;;;1.90;99.90;;;;;;5046981;28;20223;-79
2024/01/12 12:07:25;;;;;;;22.17;10.03;;;2.00;99.90;;;;;;5044621;28;20670;-80
2024/01/12 12:09:52;;;;;;;22.00;11.03;;;2.00;99.90;;;;;;5043770;28;20227;-79
2024/01/12 12:12:19;;;;;;;30.37;11.17;;;2.00;99.90;;;;;;5045965;28;20594;-79
2024/01/12 12:15:04;;;;;;;23.10;10.87;;;2.00;99.90;;;;;;5041912;28;20310;-78
2024/01/12 12:17:31;;;;;;;23.67;10.20;;;2.50;99.90;;;;;;5049059;28;20549;-80
2024/01/12 12:19:59;;;;;;;23.13;10.37;;;1.90;99.90;;;;;;5043810;28;20575;-80
2024/01/12 12:22:26;;;;;;;22.23;10.37;;;1.90;99.90;;;;;;5044318;28;20638;-79
2024/01/12 12:24:54;;;;;;;24.23;10.60;;;2.00;99.90;;;;;;5043506;28;20297;-79
2024/01/12 12:27:21;;;;;;;23.20;10.37;;;1.90;99.90;;;;;;5040667;28;20290;-81
2024/01/12 12:29:50;;;;;;;21.90;9.83;;;2.00;99.90;;;;;;5048550;28;20220;-78
2024/01/12 12:32:17;;;;;;;23.60;10.27;;;2.10;99.90;;;;;;5040354;28;20196;-79
2024/01/12 12:34:44;;;;;;;22.70;10.53;;;2.00;99.90;;;;;;5044164;28;20310;-79